Time;durP1;ratioP1;P1;durP2;ratioP2;P2;SDS_P1;SDS_P2;PMS_P1;PMS_P2;Temp;Humidity;BMP_temperature;BMP_pressure;BME280_temperature;BME280_humidity;BME280_pressure;Samples;Min_cycle;Max_cycle;Signal;HPM_P1;HPM_P2
2021/12/10 00:01:44;;;;;;;24.77;2.73;;;;;;;13.96;82.57;101302.50;4925825;29;20567;-66
2021/12/10 00:04:11;;;;;;;7.90;2.28;;;;;;;13.99;82.39;101298.28;4933608;29;20051;-66
2021/12/10 00:07:02;;;;;;;11.40;2.35;;;;;;;14.01;82.74;101295.16;4930786;29;20052;-66
2021/12/10 00:09:31;;;;;;;;;;;;;;;14.06;82.79;101296.00;4934425;29;20048;-66
2021/12/10 00:12:07;;;;;;;17.30;2.58;;;;;;;14.09;82.62;101303.88;4932247;29;20370;-66
2021/12/10 00:14:36;;;;;;;10.48;2.08;;;;;;;14.11;82.57;101300.75;4932544;29;20143;-66
2021/12/10 00:17:06;;;;;;;17.50;2.47;;;;;;;14.08;82.38;101285.31;4930594;29;20052;-66
2021/12/10 00:19:41;;;;;;;10.87;2.07;;;;;;;14.13;82.41;101284.47;4934414;29;20417;-66
2021/12/10 00:22:13;;;;;;;8.90;2.47;;;;;;;14.13;82.51;101287.28;4930754;29;20043;-66
2021/12/10 00:24:42;;;;;;;22.87;3.23;;;;;;;14.18;82.47;101295.66;4934718;29;20135;-69
2021/12/10 00:27:10;;;;;;;13.83;2.83;;;;;;;14.20;82.35;101288.63;4934375;29;20130;-74
2021/12/10 00:29:42;;;;;;;14.38;2.47;;;;;;;14.14;82.55;101277.72;4946488;28;20092;-75
2021/12/10 00:32:19;;;;;;;10.98;2.53;;;;;;;14.23;82.37;101298.47;4934013;29;20052;-76
2021/12/10 00:34:50;;;;;;;8.95;2.33;;;;;;;14.22;82.19;101293.97;4931784;29;20070;-70
2021/12/10 00:37:20;;;;;;;11.57;2.13;;;;;;;14.27;82.41;101295.94;4933611;29;20106;-63
2021/12/10 00:39:52;;;;;;;6.50;2.00;;;;;;;14.27;82.41;101290.31;4932562;29;20066;-64
2021/12/10 00:42:24;;;;;;;19.47;2.60;;;;;;;14.26;82.32;101268.97;4934247;29;20095;-66
2021/12/10 00:44:53;;;;;;;17.85;3.65;;;;;;;14.31;82.07;101278.19;4937303;29;20086;-67
2021/12/10 00:47:20;;;;;;;12.25;2.25;;;;;;;14.22;82.16;101268.69;4934475;29;20483;-65
2021/12/10 00:49:47;;;;;;;19.25;3.08;;;;;;;14.31;81.91;101282.97;4935094;29;20501;-63
2021/12/10 00:52:15;;;;;;;16.08;2.40;;;;;;;14.33;81.94;101281.56;4933043;29;20130;-63
2021/12/10 00:54:43;;;;;;;15.52;2.97;;;;;;;14.33;82.10;101275.94;4935587;29;20074;-67
2021/12/10 00:57:11;;;;;;;12.57;2.63;;;;;;;14.33;81.99;101267.53;4932326;29;20070;-66
2021/12/10 00:59:40;;;;;;;12.38;2.65;;;;;;;14.38;81.69;101272.25;4932351;29;20130;-66
2021/12/10 01:02:10;;;;;;;11.07;2.97;;;;;;;14.34;82.02;101273.97;4932343;29;20484;-66
2021/12/10 01:04:40;;;;;;;15.77;3.75;;;;;;;14.28;82.22;101267.53;4931988;29;20078;-68
2021/12/10 01:07:17;;;;;;;15.18;2.85;;;;;;;14.13;82.31;101262.00;4932619;29;20079;-69
2021/12/10 01:09:49;;;;;;;16.30;3.60;;;;;;;14.19;82.61;101263.66;4932887;29;20079;-65
2021/12/10 01:12:22;;;;;;;6.87;1.53;;;;;;;14.15;82.81;101268.16;4931574;29;20461;-68
2021/12/10 01:23:48;;;;;;;10.32;2.17;;;;;;;14.21;83.08;101244.53;4931667;29;20135;-64
2021/12/10 01:28:50;;;;;;;8.52;1.63;;;;;;;14.23;83.08;101225.44;4930739;29;20047;-63
2021/12/10 01:31:17;;;;;;;3.83;1.43;;;;;;;14.27;83.13;101237.75;4929733;29;20138;-64
2021/12/10 01:33:44;;;;;;;10.10;1.80;;;;;;;14.27;82.93;101236.94;4932933;29;20060;-64
2021/12/10 01:36:12;;;;;;;8.68;1.45;;;;;;;14.20;83.03;101238.06;4934757;29;20559;-65
2021/12/10 01:38:44;;;;;;;8.80;2.05;;;;;;;14.25;83.02;101231.59;4928720;29;20135;-66
2021/12/10 01:41:15;;;;;;;7.40;1.83;;;;;;;14.23;82.97;101228.25;4930028;29;20054;-66
2021/12/10 01:43:44;;;;;;;16.77;2.20;;;;;;;14.31;82.78;101219.19;4931024;29;20078;-66
2021/12/10 01:46:18;;;;;;;8.85;1.30;;;;;;;14.34;82.65;101220.59;4928232;29;20131;-66
2021/12/10 01:48:51;;;;;;;9.63;1.40;;;;;;;14.21;82.84;101177.94;4923618;29;20055;-66
2021/12/10 01:51:22;;;;;;;19.25;2.78;;;;;;;14.43;82.56;101210.44;4928430;29;20229;-63
2021/12/10 01:53:54;;;;;;;10.50;1.83;;;;;;;14.45;82.35;101220.22;4926428;29;20448;-69
2021/12/10 01:56:30;;;;;;;17.42;2.50;;;;;;;14.40;82.41;101209.03;4931506;29;20488;-67
2021/12/10 01:58:58;;;;;;;11.25;2.47;;;;;;;14.45;82.54;101209.00;4923445;29;20083;-68
2021/12/10 02:01:31;;;;;;;14.73;2.45;;;;;;;14.48;82.22;101209.56;4931397;29;20051;-68
2021/12/10 02:04:03;;;;;;;9.20;2.20;;;;;;;14.46;82.42;101202.25;4929429;29;20079;-67
2021/12/10 02:06:30;;;;;;;12.85;2.22;;;;;;;14.52;82.29;101219.94;4930442;29;20138;-67
2021/12/10 02:08:57;;;;;;;13.57;3.53;;;;;;;14.53;82.21;101223.59;4930568;29;20063;-67
2021/12/10 02:11:24;;;;;;;13.23;2.55;;;;;;;14.49;82.47;101228.09;4941607;29;20087;-68
2021/12/10 02:13:51;;;;;;;18.30;3.25;;;;;;;14.47;82.61;101231.19;4930172;29;20082;-64
2021/12/10 02:16:18;;;;;;;9.82;1.90;;;;;;;14.37;82.48;101220.84;4931772;29;20051;-64
2021/12/10 02:18:45;;;;;;;12.90;2.40;;;;;;;14.11;82.78;101216.50;4929205;29;20060;-65
2021/12/10 02:21:14;;;;;;;13.32;1.88;;;;;;;14.05;83.17;101212.03;4927332;29;20086;-62
2021/12/10 02:23:50;;;;;;;4.45;2.08;;;;;;;13.96;83.79;101209.81;4926849;29;20083;-64
2021/12/10 02:26:17;;;;;;;10.15;2.60;;;;;;;13.91;83.40;101218.28;4930137;29;20131;-65
2021/12/10 02:28:44;;;;;;;9.77;2.60;;;;;;;13.89;83.86;101214.91;4930547;29;20086;-63
2021/12/10 02:31:12;;;;;;;10.05;2.20;;;;;;;13.80;83.88;101219.41;4929124;29;20086;-70
2021/12/10 02:33:41;;;;;;;14.52;2.25;;;;;;;13.62;84.04;101197.59;4931608;29;20491;-70
2021/12/10 02:36:11;;;;;;;6.47;2.10;;;;;;;13.79;84.19;101219.72;4932707;29;20138;-68
2021/12/10 02:38:45;;;;;;;14.13;2.10;;;;;;;13.73;84.16;101227.31;4931262;29;20106;-62
2021/12/10 02:41:15;;;;;;;16.60;3.07;;;;;;;13.75;84.30;101230.69;4930914;29;20071;-63
2021/12/10 02:43:43;;;;;;;10.77;1.40;;;;;;;13.75;84.25;101230.69;4927634;29;20083;-63
2021/12/10 02:46:10;;;;;;;10.85;2.08;;;;;;;13.63;84.26;101216.94;4927974;29;20139;-63
2021/12/10 02:48:39;;;;;;;7.77;1.17;;;;;;;13.71;84.43;101226.78;4931269;29;20098;-63
2021/12/10 02:51:08;;;;;;;10.30;1.63;;;;;;;13.67;84.56;101229.28;4924529;29;20068;-59
2021/12/10 02:53:41;;;;;;;2.60;1.33;;;;;;;13.70;84.46;101222.25;4930140;29;20211;-61
2021/12/10 02:56:10;;;;;;;11.90;1.90;;;;;;;13.68;84.58;101216.94;4930946;29;20062;-63
2021/12/10 02:58:37;;;;;;;5.53;1.27;;;;;;;13.64;84.79;101212.16;4930471;29;20143;-65
2021/12/10 03:01:10;;;;;;;4.70;1.40;;;;;;;13.54;84.81;101196.22;4930761;29;20503;-65
2021/12/10 03:03:39;;;;;;;12.30;3.27;;;;;;;13.59;84.86;101201.81;4924888;29;20054;-70
2021/12/10 03:06:11;;;;;;;6.90;1.57;;;;;;;13.40;84.67;101179.16;4931376;29;20468;-63
2021/12/10 03:08:40;;;;;;;3.53;1.97;;;;;;;13.55;84.81;101194.25;4927539;29;20075;-62
2021/12/10 03:11:08;;;;;;;6.73;1.20;;;;;;;13.65;84.67;101208.25;4935591;29;20506;-65
2021/12/10 03:13:36;;;;;;;7.53;2.03;;;;;;;13.71;84.58;101201.50;4933170;29;20058;-62
2021/12/10 03:16:03;;;;;;;14.53;2.70;;;;;;;13.68;84.49;101193.66;4930519;29;20130;-67
2021/12/10 03:18:30;;;;;;;16.75;1.70;;;;;;;13.54;84.75;101172.91;4939897;29;20663;-66
2021/12/10 03:20:57;;;;;;;9.90;1.50;;;;;;;13.75;84.53;101192.22;4935796;29;20448;-69
2021/12/10 03:23:24;;;;;;;14.13;2.13;;;;;;;13.73;84.43;101188.84;4932033;29;20580;-62
2021/12/10 03:25:51;;;;;;;13.37;1.97;;;;;;;13.69;84.61;101186.91;4931029;29;20048;-82
2021/12/10 03:28:18;;;;;;;10.38;2.28;;;;;;;13.81;84.29;101189.38;4931998;29;20071;-64
2021/12/10 03:30:52;;;;;;;16.85;2.33;;;;;;;13.80;84.51;101182.94;4936115;29;20528;-65
2021/12/10 03:33:19;;;;;;;13.30;2.43;;;;;;;13.77;84.35;101175.06;4935980;29;20054;-73
2021/12/10 03:35:48;;;;;;;10.85;2.15;;;;;;;13.91;84.19;101184.59;4934311;29;20052;-62
2021/12/10 03:38:21;;;;;;;5.83;1.77;;;;;;;13.89;84.29;101188.81;4931433;29;20142;-63
2021/12/10 03:40:49;;;;;;;13.35;2.40;;;;;;;13.85;84.21;101190.50;4933978;29;20079;-68
2021/12/10 03:43:18;;;;;;;7.83;2.00;;;;;;;13.86;84.37;101181.78;4933796;29;20154;-63
2021/12/10 03:45:50;;;;;;;16.02;2.53;;;;;;;13.77;84.54;101182.66;4931225;29;20078;-63
2021/12/10 03:48:22;;;;;;;11.60;1.50;;;;;;;13.75;84.42;101180.16;4931432;29;20052;-63
2021/12/10 03:50:50;;;;;;;15.37;2.30;;;;;;;13.79;84.58;101172.84;4932397;29;20052;-64
2021/12/10 03:53:18;;;;;;;18.07;2.57;;;;;;;13.69;84.70;101178.50;4934844;29;20453;-73
2021/12/10 03:55:47;;;;;;;12.80;2.40;;;;;;;13.72;84.74;101172.31;4934650;29;20083;-74
2021/12/10 03:58:15;;;;;;;8.60;1.67;;;;;;;13.67;84.69;101161.09;4933808;29;20051;-74
2021/12/10 04:00:46;;;;;;;15.53;2.47;;;;;;;13.69;84.88;101175.69;4933641;29;20062;-70
2021/12/10 04:03:15;;;;;;;11.85;2.22;;;;;;;13.70;84.78;101171.75;4934460;29;20048;-69
2021/12/10 04:05:42;;;;;;;16.90;3.67;;;;;;;13.73;84.81;101171.16;4933951;29;20086;-69
2021/12/10 04:08:09;;;;;;;9.27;2.23;;;;;;;13.73;84.74;101162.75;4930667;29;20138;-75
2021/12/10 04:10:37;;;;;;;14.82;2.22;;;;;;;13.79;84.52;101157.97;4942077;29;20048;-69
2021/12/10 04:13:05;;;;;;;8.93;2.60;;;;;;;13.78;84.49;101148.72;4936815;29;20079;-72
2021/12/10 04:15:35;;;;;;;20.98;3.28;;;;;;;13.68;84.62;101132.75;4926500;29;20051;-75
2021/12/10 04:18:03;;;;;;;6.82;2.22;;;;;;;13.75;84.66;101150.13;4934311;29;20095;-72
2021/12/10 04:20:31;;;;;;;12.95;1.60;;;;;;;13.75;84.65;101138.88;4929524;29;20139;-68
2021/12/10 04:23:03;;;;;;;11.40;2.72;;;;;;;13.81;84.45;101128.50;4930278;29;20143;-69
2021/12/10 04:25:30;;;;;;;14.23;3.13;;;;;;;13.78;84.42;101109.41;4933262;29;20086;-69
2021/12/10 04:28:00;;;;;;;10.85;2.70;;;;;;;13.86;84.47;101113.56;4931418;29;20075;-67
2021/12/10 04:30:29;;;;;;;12.15;2.45;;;;;;;13.89;84.13;101113.00;4929840;29;20566;-64
2021/12/10 04:32:56;;;;;;;12.98;1.85;;;;;;;13.90;84.10;101115.50;4929992;29;20567;-64
2021/12/10 04:35:23;;;;;;;12.45;2.17;;;;;;;13.87;84.37;101132.09;4931802;29;20062;-64
2021/12/10 04:37:50;;;;;;;12.00;2.33;;;;;;;13.85;84.22;101117.50;4932944;29;20118;-64
2021/12/10 04:40:21;;;;;;;15.53;2.27;;;;;;;13.89;84.42;101118.63;4933062;29;20082;-64
2021/12/10 04:42:50;;;;;;;14.57;1.60;;;;;;;13.88;84.18;101123.41;4930039;29;20142;-63
2021/12/10 04:45:18;;;;;;;15.75;2.50;;;;;;;13.92;84.21;101118.88;4929800;29;20073;-63
2021/12/10 04:47:47;;;;;;;16.55;2.42;;;;;;;13.92;84.09;101123.66;4932696;29;20484;-63
2021/12/10 04:50:17;;;;;;;14.93;1.98;;;;;;;13.95;84.02;101129.53;4931032;29;20075;-63
2021/12/10 04:52:44;;;;;;;16.25;2.33;;;;;;;13.85;83.88;101106.28;4931388;29;20122;-63
2021/12/10 04:55:14;;;;;;;14.60;1.75;;;;;;;13.95;83.88;101132.34;4931927;29;20130;-63
2021/12/10 04:57:42;;;;;;;15.80;2.80;;;;;;;13.98;83.81;101133.69;4931729;29;20047;-64
2021/12/10 05:00:14;;;;;;;12.55;2.40;;;;;;;13.79;84.00;101107.44;4934307;29;20066;-64
2021/12/10 05:02:41;;;;;;;9.60;1.98;;;;;;;13.94;84.08;101147.47;4930147;29;20558;-66
2021/12/10 05:05:09;;;;;;;12.20;2.00;;;;;;;13.95;83.96;101152.00;4932356;29;20126;-63
2021/12/10 05:07:37;;;;;;;8.63;2.08;;;;;;;13.90;83.86;101134.31;4934059;29;20151;-63
2021/12/10 05:10:08;;;;;;;21.80;1.85;;;;;;;13.86;84.25;101148.09;4925799;29;20058;-67
2021/12/10 05:12:35;;;;;;;12.18;2.28;;;;;;;13.88;83.95;101151.47;4933508;29;20138;-68
2021/12/10 05:15:06;;;;;;;15.70;3.55;;;;;;;13.80;84.37;101137.19;4931493;29;20071;-67
2021/12/10 05:17:34;;;;;;;17.10;2.35;;;;;;;13.87;84.10;101154.53;4936072;29;20135;-69
2021/12/10 05:20:11;;;;;;;12.25;1.77;;;;;;;13.75;84.34;101138.06;4932504;29;20071;-69
2021/12/10 05:22:46;;;;;;;8.63;1.85;;;;;;;13.78;84.59;101153.47;4932074;29;20143;-69
2021/12/10 05:25:13;;;;;;;12.23;1.83;;;;;;;13.76;84.64;101159.38;4925327;29;20082;-69
2021/12/10 05:27:41;;;;;;;15.02;2.05;;;;;;;13.73;84.69;101151.53;4928708;29;20494;-70
2021/12/10 05:30:12;;;;;;;3.47;1.40;;;;;;;13.73;85.07;101166.38;4933229;29;20134;-70
2021/12/10 05:32:39;;;;;;;7.03;1.00;;;;;;;13.68;84.90;101158.00;4929710;29;20130;-70
2021/12/10 05:35:06;;;;;;;2.60;1.27;;;;;;;13.69;85.03;101144.81;4928784;29;20139;-73
2021/12/10 05:37:34;;;;;;;2.63;0.88;;;;;;;13.72;85.04;101144.25;4929129;29;20082;-72
2021/12/10 05:40:01;;;;;;;9.23;1.23;;;;;;;13.70;85.36;101150.13;4930574;29;20086;-73
2021/12/10 05:42:28;;;;;;;2.50;0.68;;;;;;;13.72;85.29;101153.50;4930865;29;20068;-68
2021/12/10 05:44:55;;;;;;;7.20;0.80;;;;;;;13.80;84.92;101154.03;4933360;29;20130;-69
2021/12/10 05:47:21;;;;;;;3.58;0.85;;;;;;;13.73;85.00;101132.72;4927851;29;20076;-68
2021/12/10 05:49:48;;;;;;;1.58;0.95;;;;;;;13.74;85.00;101127.94;4932703;29;20055;-68
2021/12/10 05:52:15;;;;;;;3.50;1.17;;;;;;;13.75;84.87;101124.03;4933185;29;20552;-68
2021/12/10 05:54:43;;;;;;;4.13;0.83;;;;;;;13.80;85.09;101125.94;4932127;29;20134;-67
2021/12/10 05:57:10;;;;;;;1.02;0.70;;;;;;;13.80;85.09;101121.16;4929559;29;20139;-67
2021/12/10 05:59:38;;;;;;;2.17;0.70;;;;;;;13.86;85.08;101131.25;4930330;29;20411;-67
2021/12/10 06:02:05;;;;;;;5.78;1.30;;;;;;;13.73;84.91;101104.63;4944554;29;20136;-68
2021/12/10 06:04:34;;;;;;;2.95;0.88;;;;;;;13.86;85.02;101125.63;4929072;29;20048;-72
2021/12/10 06:07:04;;;;;;;4.30;1.25;;;;;;;13.87;85.15;101113.28;4930046;29;20074;-72
2021/12/10 06:09:32;;;;;;;4.28;1.05;;;;;;;13.83;85.12;101114.97;4930005;29;20143;-64
2021/12/10 06:12:00;;;;;;;5.63;1.00;;;;;;;13.85;85.41;101123.97;4927978;29;20079;-64
2021/12/10 06:14:27;;;;;;;8.02;1.70;;;;;;;13.88;85.30;101123.41;4922425;29;20159;-68
2021/12/10 06:16:54;;;;;;;19.35;2.75;;;;;;;13.86;85.27;101114.41;4929100;29;20468;-60
2021/12/10 06:19:22;;;;;;;7.75;1.80;;;;;;;13.85;85.23;101112.75;4930089;29;20056;-59
2021/12/10 06:21:50;;;;;;;12.98;2.30;;;;;;;13.80;85.66;101112.75;4925968;29;20130;-63
2021/12/10 06:24:17;;;;;;;8.60;1.85;;;;;;;13.83;85.73;101120.59;4933278;29;20510;-61
2021/12/10 06:26:44;;;;;;;10.93;2.42;;;;;;;13.89;85.51;101125.06;4925431;29;20069;-73
2021/12/10 06:29:11;;;;;;;5.90;2.33;;;;;;;13.75;85.70;101101.56;4930599;29;20464;-60
2021/12/10 06:31:39;;;;;;;6.35;2.35;;;;;;;13.74;85.74;101111.09;4928333;29;20055;-59
2021/12/10 06:34:09;;;;;;;10.52;2.22;;;;;;;13.79;85.99;101113.88;4936637;29;20055;-59
2021/12/10 06:36:36;;;;;;;9.52;2.75;;;;;;;13.78;86.08;101120.63;4929659;29;20062;-60
2021/12/10 06:39:05;;;;;;;12.00;2.30;;;;;;;13.87;85.78;101124.50;4931016;29;20139;-60
2021/12/10 06:41:32;;;;;;;7.22;2.30;;;;;;;13.95;85.79;101123.91;4931549;29;20487;-60
2021/12/10 06:44:04;;;;;;;4.78;1.65;;;;;;;13.91;85.77;101122.81;4932110;29;20054;-60
2021/12/10 06:46:35;;;;;;;4.10;1.80;;;;;;;13.87;85.85;101135.72;4931427;29;20155;-62
2021/12/10 06:49:02;;;;;;;2.50;1.15;;;;;;;13.89;86.00;101133.47;4932022;29;20073;-61
2021/12/10 06:51:29;;;;;;;8.20;1.03;;;;;;;13.79;86.32;101129.91;4937582;29;20083;-65
2021/12/10 06:53:56;;;;;;;7.05;1.48;;;;;;;13.79;86.23;101129.91;4932772;29;20142;-62
2021/12/10 06:56:23;;;;;;;1.58;0.88;;;;;;;13.87;86.48;101146.97;4919727;29;20134;-62
2021/12/10 06:58:51;;;;;;;2.70;0.93;;;;;;;13.90;86.30;101143.56;4926281;29;20448;-62
2021/12/10 07:01:22;;;;;;;1.40;0.80;;;;;;;13.92;86.28;101146.13;4934617;29;20142;-68
2021/12/10 07:03:55;;;;;;;1.00;0.60;;;;;;;13.95;86.30;101145.53;4937356;29;20078;-62
2021/12/10 07:06:24;;;;;;;1.17;0.65;;;;;;;13.92;86.35;101138.53;4936682;29;20444;-66
2021/12/10 07:08:52;;;;;;;2.30;0.70;;;;;;;13.92;86.41;101140.50;4936782;29;20135;-63
2021/12/10 07:11:21;;;;;;;0.35;0.22;;;;;;;13.91;86.46;101142.47;4934540;29;20082;-62
2021/12/10 07:13:52;;;;;;;0.22;0.22;;;;;;;13.93;86.36;101140.19;4933404;29;20082;-62
2021/12/10 07:16:21;;;;;;;0.35;0.35;;;;;;;13.92;86.48;101146.13;4929063;29;20047;-63
2021/12/10 07:18:50;;;;;;;0.50;0.35;;;;;;;13.95;86.25;101148.34;4936610;29;20048;-62
2021/12/10 07:21:17;;;;;;;2.42;0.73;;;;;;;14.00;86.30;101153.91;4932191;29;20079;-62
2021/12/10 07:23:44;;;;;;;2.33;0.60;;;;;;;13.97;86.21;101155.34;4923912;29;20074;-63
2021/12/10 07:26:12;;;;;;;0.68;0.50;;;;;;;13.98;86.40;101140.19;4933480;29;20138;-60
2021/12/10 07:28:40;;;;;;;2.72;0.93;;;;;;;14.01;86.38;101149.13;4935911;29;20436;-60
2021/12/10 07:31:11;;;;;;;0.57;0.50;;;;;;;13.97;86.27;101146.06;4929018;29;20071;-60
2021/12/10 07:33:39;;;;;;;0.55;0.47;;;;;;;13.90;86.74;101145.56;4939188;29;20055;-60
2021/12/10 07:36:06;;;;;;;3.22;0.80;;;;;;;13.93;86.66;101153.41;4930181;29;20059;-60
2021/12/10 07:38:34;;;;;;;0.23;0.23;;;;;;;13.94;86.67;101153.09;4925248;29;20150;-59
2021/12/10 07:41:01;;;;;;;3.03;0.75;;;;;;;13.98;86.49;101156.16;4939664;29;20547;-59
2021/12/10 07:43:28;;;;;;;4.80;0.70;;;;;;;14.01;86.39;101160.38;4924045;29;20149;-60
2021/12/10 07:45:55;;;;;;;0.95;0.60;;;;;;;13.91;86.69;101156.50;4924536;29;21867;-59
2021/12/10 07:48:23;;;;;;;1.08;0.40;;;;;;;13.93;86.51;101142.16;4926282;29;20056;-59
2021/12/10 07:50:58;;;;;;;2.47;0.33;;;;;;;14.00;86.72;101153.91;4930174;29;20050;-59
2021/12/10 07:53:31;;;;;;;1.08;0.82;;;;;;;13.98;86.69;101153.34;4930470;29;20430;-59
2021/12/10 07:56:02;;;;;;;7.50;1.05;;;;;;;14.02;86.75;101157.28;4934763;29;20056;-59
2021/12/10 07:58:30;;;;;;;0.57;0.35;;;;;;;13.99;86.70;101161.50;4933739;29;20052;-59
2021/12/10 08:00:58;;;;;;;0.68;0.47;;;;;;;13.84;86.69;101143.88;4936345;29;20444;-60
2021/12/10 08:03:25;;;;;;;1.00;0.63;;;;;;;13.98;87.01;101165.47;4936623;29;20126;-59
2021/12/10 08:05:52;;;;;;;0.80;0.60;;;;;;;14.01;86.75;101171.59;4937067;29;20080;-59
2021/12/10 08:08:19;;;;;;;4.13;0.52;;;;;;;13.87;87.06;101141.34;4936462;29;20143;-59
2021/12/10 08:10:47;;;;;;;1.95;0.77;;;;;;;14.05;87.05;101167.09;4936423;29;20134;-60
2021/12/10 08:13:16;;;;;;;5.05;1.00;;;;;;;14.01;86.92;101149.13;4918373;29;20579;-60
2021/12/10 08:15:43;;;;;;;1.73;1.05;;;;;;;14.04;86.78;101160.63;4934677;29;20126;-60
2021/12/10 08:18:11;;;;;;;7.28;0.93;;;;;;;14.01;87.15;101163.19;4936608;29;20058;-60
2021/12/10 08:20:38;;;;;;;2.42;0.70;;;;;;;13.96;87.31;101173.31;4936144;29;20139;-60
2021/12/10 08:23:06;;;;;;;2.42;0.85;;;;;;;13.97;87.12;101157.31;4937306;29;20130;-60
2021/12/10 08:25:34;;;;;;;6.03;0.75;;;;;;;14.06;87.21;101164.00;4933806;29;20139;-60
2021/12/10 08:28:02;;;;;;;0.88;0.45;;;;;;;14.08;87.23;101166.50;4945036;29;20055;-60
2021/12/10 08:30:30;;;;;;;3.70;1.08;;;;;;;14.08;87.10;101167.34;4935304;29;20055;-60
2021/12/10 08:32:59;;;;;;;1.25;0.52;;;;;;;14.03;87.28;101166.56;4935018;29;20134;-60
2021/12/10 08:35:31;;;;;;;1.98;1.10;;;;;;;13.99;87.48;101164.31;4936122;29;20138;-60
2021/12/10 08:38:02;;;;;;;5.95;1.60;;;;;;;14.13;87.31;101186.16;4936207;29;20142;-60
2021/12/10 08:40:38;;;;;;;0.88;0.73;;;;;;;14.11;87.41;101177.16;4937147;29;20089;-61
2021/12/10 08:43:06;;;;;;;6.72;0.82;;;;;;;14.13;87.21;101164.53;4934890;29;20488;-60
2021/12/10 08:45:35;;;;;;;2.38;0.55;;;;;;;14.08;87.62;101178.56;4934008;29;20182;-60
2021/12/10 08:48:04;;;;;;;4.47;1.55;;;;;;;14.15;87.52;101175.47;4936431;29;20076;-60
2021/12/10 08:50:32;;;;;;;5.90;1.25;;;;;;;14.17;87.23;101173.22;4934498;29;20052;-60
2021/12/10 08:53:04;;;;;;;1.50;0.95;;;;;;;14.15;87.53;101173.50;4933965;29;20138;-60
2021/12/10 08:55:34;;;;;;;4.43;0.82;;;;;;;14.17;87.36;101167.59;4924462;29;20134;-60
2021/12/10 08:58:02;;;;;;;11.52;1.15;;;;;;;14.12;87.52;101162.84;4930492;29;20064;-61
2021/12/10 09:00:30;;;;;;;2.50;0.60;;;;;;;14.03;87.26;101142.13;4930312;29;20127;-60
2021/12/10 09:02:58;;;;;;;1.02;0.88;;;;;;;14.19;87.42;101173.78;4936152;29;20062;-61
2021/12/10 09:05:27;;;;;;;4.72;1.08;;;;;;;14.21;87.59;101177.94;4930763;29;20094;-62
2021/12/10 09:07:54;;;;;;;2.47;0.93;;;;;;;14.17;87.67;101176.03;4931427;29;20079;-61
2021/12/10 09:10:25;;;;;;;2.92;0.75;;;;;;;14.26;87.62;101179.91;4934296;29;20054;-61
2021/12/10 09:12:53;;;;;;;0.38;0.35;;;;;;;14.25;87.54;101183.00;4932956;29;20094;-61
2021/12/10 09:15:22;;;;;;;3.78;1.15;;;;;;;14.18;87.46;101177.69;4935479;29;20083;-61
2021/12/10 09:17:52;;;;;;;1.27;0.85;;;;;;;14.35;87.32;101186.56;4935796;29;20056;-61
2021/12/10 09:20:25;;;;;;;;;;;;;;;14.38;87.58;101200.03;4935688;29;20496;-61
2021/12/10 09:22:53;;;;;;;6.75;1.23;;;;;;;14.36;87.37;101204.31;4933999;29;19937;-61
2021/12/10 09:25:20;;;;;;;5.10;0.82;;;;;;;14.29;87.56;101207.44;4932003;29;20048;-61
2021/12/10 09:27:47;;;;;;;6.88;1.30;;;;;;;14.31;87.40;101196.72;4929857;29;20056;-61
2021/12/10 09:30:16;;;;;;;8.10;1.35;;;;;;;14.33;87.74;101214.13;4931112;29;20130;-61
2021/12/10 09:32:44;;;;;;;4.67;1.83;;;;;;;14.41;87.65;101213.50;4934478;29;20048;-60
2021/12/10 09:35:13;;;;;;;2.22;0.80;;;;;;;14.40;87.22;101220.28;4932904;29;20298;-60
2021/12/10 09:37:42;;;;;;;1.73;0.95;;;;;;;14.34;87.52;101215.81;4933692;29;20052;-60
2021/12/10 09:40:18;;;;;;;3.90;1.10;;;;;;;14.33;87.48;101218.91;4934768;29;20175;-60
2021/12/10 09:42:46;;;;;;;5.30;1.17;;;;;;;14.44;87.40;101228.97;4930167;29;20138;-60
2021/12/10 09:45:17;;;;;;;3.50;1.58;;;;;;;14.50;87.29;101229.78;4933360;29;20079;-61
2021/12/10 09:47:44;;;;;;;1.02;0.57;;;;;;;14.55;87.19;101233.41;4929226;29;20126;-60
2021/12/10 09:50:14;;;;;;;1.67;0.90;;;;;;;14.46;87.31;101224.75;4932159;29;20047;-61
2021/12/10 09:52:43;;;;;;;9.13;1.63;;;;;;;14.50;87.58;101233.47;4927367;29;20054;-61
2021/12/10 09:55:14;;;;;;;7.22;1.67;;;;;;;14.41;87.95;101227.56;4930798;29;20059;-60
2021/12/10 09:57:42;;;;;;;4.65;0.80;;;;;;;14.43;87.75;101236.56;4931682;29;20048;-61
2021/12/10 10:00:38;;;;;;;6.15;1.40;;;;;;;14.55;87.47;101252.25;4926776;29;20040;-60
2021/12/10 10:03:10;;;;;;;2.42;0.85;;;;;;;14.55;87.29;101244.66;4933598;29;20055;-60
2021/12/10 10:05:38;;;;;;;4.35;1.65;;;;;;;14.55;87.27;101241.00;4937239;29;20075;-60
2021/12/10 10:08:08;;;;;;;7.75;1.92;;;;;;;14.45;87.56;101230.63;4934267;29;20122;-61
2021/12/10 10:10:38;;;;;;;12.30;2.08;;;;;;;14.61;87.41;101228.63;4933475;29;20127;-59
2021/12/10 10:13:10;;;;;;;4.38;1.50;;;;;;;14.51;87.35;101237.09;4934069;29;20075;-60
2021/12/10 10:15:40;;;;;;;11.05;1.38;;;;;;;14.65;87.49;101255.00;4933188;29;20159;-64
2021/12/10 10:18:10;;;;;;;9.00;2.40;;;;;;;14.62;87.20;101256.41;4931525;29;20052;-60
2021/12/10 10:20:39;;;;;;;;;;;;;;;14.63;87.21;101257.25;4933678;29;20127;-61
2021/12/10 10:23:09;;;;;;;11.40;2.45;;;;;;;14.61;87.24;101265.16;4936923;29;19931;-60
2021/12/10 10:25:40;;;;;;;14.57;1.92;;;;;;;14.60;87.34;101264.31;4943096;29;20558;-60
2021/12/10 10:28:10;;;;;;;10.07;1.77;;;;;;;14.63;87.14;101266.56;4934306;29;20074;-60
2021/12/10 10:30:43;;;;;;;9.82;1.27;;;;;;;14.55;87.61;101255.06;4933057;29;20130;-60
2021/12/10 10:33:10;;;;;;;20.73;2.53;;;;;;;14.58;87.11;101263.75;4930364;29;20498;-60
2021/12/10 10:35:46;;;;;;;4.88;1.05;;;;;;;14.58;87.33;101260.94;4933703;29;20075;-60
2021/12/10 10:38:16;;;;;;;12.88;2.08;;;;;;;14.50;87.45;101249.47;4932314;29;20146;-61
2021/12/10 10:40:55;;;;;;;8.75;1.52;;;;;;;14.50;87.50;101252.28;4934123;29;20138;-60
2021/12/10 10:43:24;;;;;;;22.02;2.40;;;;;;;14.48;87.45;101246.09;4934028;29;20126;-62
2021/12/10 10:45:52;;;;;;;8.13;1.48;;;;;;;14.54;87.71;101264.63;4933245;29;20144;-60
2021/12/10 10:48:19;;;;;;;10.23;1.55;;;;;;;14.64;87.68;101259.78;4932898;29;20044;-60
2021/12/10 10:50:54;;;;;;;8.65;2.28;;;;;;;14.63;87.74;101265.69;4935005;29;20074;-60
2021/12/10 10:53:27;;;;;;;9.40;1.95;;;;;;;14.68;87.73;101254.41;4929740;29;20087;-60
2021/12/10 10:56:10;;;;;;;7.93;0.98;;;;;;;14.63;87.40;101249.69;4945517;28;20119;-61
2021/12/10 10:58:53;;;;;;;9.48;1.70;;;;;;;14.55;87.63;101238.19;4931446;29;20051;-60
2021/12/10 11:01:26;;;;;;;1.65;0.70;;;;;;;14.64;87.34;101259.78;4936266;29;20044;-60
2021/12/10 11:04:25;;;;;;;8.65;1.40;;;;;;;14.61;87.83;101259.53;4933771;29;20043;-60
2021/12/10 11:07:05;;;;;;;21.40;2.30;;;;;;;14.60;87.70;101250.25;4951714;29;20074;-60
2021/12/10 11:09:33;;;;;;;6.40;1.17;;;;;;;14.74;87.69;101246.81;4932571;29;20329;-60
2021/12/10 11:12:07;;;;;;;4.30;1.17;;;;;;;14.68;87.67;101243.19;4933541;29;20130;-61
2021/12/10 11:14:45;;;;;;;3.50;1.27;;;;;;;14.76;87.52;101244.53;4931451;29;20075;-60
2021/12/10 11:17:41;;;;;;;7.63;1.63;;;;;;;14.84;87.51;101255.16;4932696;29;20467;-59
2021/12/10 11:20:18;;;;;;;3.78;1.27;;;;;;;14.85;87.32;101246.44;4932254;29;20051;-59
2021/12/10 11:22:52;;;;;;;11.43;1.50;;;;;;;14.92;86.92;101249.75;4932931;29;20503;-59
2021/12/10 11:25:26;;;;;;;2.67;1.60;;;;;;;14.91;87.20;101236.00;4933132;29;20125;-60
2021/12/10 11:28:07;;;;;;;0.75;0.73;;;;;;;14.80;87.23;101215.56;4935846;29;20061;-59
2021/12/10 11:30:35;;;;;;;4.53;1.10;;;;;;;15.06;86.99;101237.84;4936791;29;20472;-59
2021/12/10 11:33:23;;;;;;;3.47;1.10;;;;;;;15.07;87.46;101242.31;4936578;29;20055;-59
2021/12/10 11:35:56;;;;;;;5.82;1.65;;;;;;;15.13;87.33;101229.88;4937253;29;20134;-59
2021/12/10 11:38:31;;;;;;;6.85;1.35;;;;;;;15.18;86.96;101235.50;4936104;29;20147;-60
2021/12/10 11:41:04;;;;;;;7.07;1.88;;;;;;;15.20;87.21;101238.81;4935982;29;20131;-59
2021/12/10 11:43:54;;;;;;;10.30;1.50;;;;;;;15.29;87.44;101231.44;4936973;29;20138;-59
2021/12/10 11:46:45;;;;;;;11.73;3.08;;;;;;;15.41;87.24;101240.31;4935503;29;20130;-59